createdAt,value
2017-06-24T00:00:03.256Z,99.99
2017-06-24T00:05:03.576Z,99.99
2017-06-24T00:10:02.988Z,99.99
2017-06-24T00:15:03.363Z,99.99
2017-06-24T00:20:02.798Z,99.99
2017-06-24T00:25:03.214Z,99.99
2017-06-24T00:30:02.636Z,99.99
2017-06-24T00:35:03.059Z,99.99
2017-06-24T00:40:03.414Z,99.99
2017-06-24T00:45:02.891Z,99.99
2017-06-24T00:50:03.252Z,99.99
2017-06-24T00:55:02.678Z,99.99
2017-06-24T01:00:03.197Z,99.99
2017-06-24T01:05:02.628Z,99.99
2017-06-24T01:10:03.000Z,99.99
2017-06-24T01:15:03.308Z,99.99
2017-06-24T01:20:02.627Z,99.99
2017-06-24T01:25:03.056Z,99.99
2017-06-24T01:30:03.483Z,99.99
2017-06-24T01:35:02.785Z,99.99
2017-06-24T01:40:03.245Z,99.87
2017-06-24T01:45:02.687Z,99.48
2017-06-24T01:50:03.131Z,99.48
2017-06-24T01:55:02.602Z,99.48
2017-06-24T02:00:02.981Z,99.19
2017-06-24T02:05:03.313Z,98.91
2017-06-24T02:10:02.709Z,98.91
2017-06-24T02:15:03.229Z,98.57
2017-06-24T02:20:02.685Z,98.19
2017-06-24T02:25:03.205Z,97.42
2017-06-24T02:30:02.666Z,97.52
2017-06-24T02:35:03.011Z,97.23
2017-06-24T02:40:03.535Z,97.04
2017-06-24T02:45:02.787Z,96.03
2017-06-24T02:50:03.070Z,96.03
2017-06-24T02:55:03.327Z,95.84
2017-06-24T03:00:02.784Z,95.65
2017-06-24T03:10:02.973Z,94.89
2017-06-24T03:15:03.346Z,94.79
2017-06-24T03:20:02.708Z,94.79
2017-06-24T03:25:03.042Z,94.5
2017-06-24T03:30:03.419Z,94.21
2017-06-24T03:35:02.743Z,93.3
2017-06-24T03:40:03.089Z,93.3
2017-06-24T03:45:03.489Z,92.92
2017-06-24T03:50:02.976Z,92.54
2017-06-24T03:55:03.272Z,92.35
2017-06-24T04:00:02.812Z,92.35
2017-06-24T04:05:03.283Z,92.25
2017-06-24T04:10:02.761Z,91.68
2017-06-24T04:15:03.225Z,91.39
2017-06-24T04:20:02.696Z,91.11
2017-06-24T04:25:03.029Z,90.63
2017-06-24T04:30:03.354Z,90.72
2017-06-24T04:35:02.793Z,90.24
2017-06-24T04:40:03.131Z,90.34
2017-06-24T04:45:03.435Z,89.95
2017-06-24T04:50:02.702Z,90.44
2017-06-24T04:55:03.207Z,90.05
2017-06-24T05:00:02.598Z,90.05
2017-06-24T05:05:03.021Z,89.86
2017-06-24T05:10:03.363Z,89.58
2017-06-24T05:15:02.700Z,89.72
2017-06-24T05:20:03.141Z,89.72
2017-06-24T05:25:03.405Z,89.9
2017-06-24T05:30:02.695Z,90.19
2017-06-24T05:35:03.012Z,90.09
2017-06-24T05:40:03.465Z,90.19
2017-06-24T05:45:02.812Z,90.81
2017-06-24T05:50:03.132Z,90.81
2017-06-24T05:55:03.405Z,90.91
2017-06-24T06:00:02.834Z,91.49
2017-06-24T06:05:03.149Z,92.97
2017-06-24T06:10:02.695Z,93.4
2017-06-24T06:15:03.054Z,94.35
2017-06-24T06:20:02.597Z,96.03
2017-06-24T06:25:02.933Z,96.13
2017-06-24T06:30:03.187Z,96.13
2017-06-24T06:35:02.704Z,96.03
2017-06-24T06:40:03.247Z,95.84
2017-06-24T06:45:02.724Z,96.03
2017-06-24T06:50:03.111Z,96.32
2017-06-24T06:55:03.480Z,95.94
2017-06-24T07:00:03.054Z,96.22
2017-06-24T07:05:03.488Z,96.37
2017-06-24T07:10:02.810Z,96.32
2017-06-24T07:15:03.359Z,96.08
2017-06-24T07:20:02.629Z,96.94
2017-06-24T07:25:03.431Z,97.24
2017-06-24T07:30:02.887Z,96.56
2017-06-24T07:35:03.224Z,97.14
2017-06-24T07:40:02.607Z,97.24
2017-06-24T07:45:03.079Z,96.85
2017-06-24T07:50:02.576Z,96.27
2017-06-24T07:55:03.028Z,95.36
2017-06-24T08:00:03.369Z,95.36
2017-06-24T08:05:02.913Z,95.65
2017-06-24T08:10:03.471Z,95.17
2017-06-24T08:15:02.743Z,95.07
2017-06-24T08:20:03.146Z,95.17
2017-06-24T08:25:03.545Z,95.65
2017-06-24T08:30:02.903Z,95.46
2017-06-24T08:35:03.425Z,94.88
2017-06-24T08:40:03.215Z,93.82
2017-06-24T08:45:02.707Z,94.59
2017-06-24T08:50:03.230Z,94.74
2017-06-24T08:55:02.597Z,95.12
2017-06-24T09:00:02.896Z,95.41
2017-06-24T09:05:03.434Z,95.45
2017-06-24T09:10:03.033Z,94.64
2017-06-24T09:15:02.646Z,93.97
2017-06-24T09:20:03.485Z,92.82
2017-06-24T09:25:03.494Z,92.43
2017-06-24T09:30:03.504Z,92.05
2017-06-24T09:35:03.141Z,91.66
2017-06-24T09:40:02.923Z,90.28
2017-06-24T09:45:02.603Z,89.12
2017-06-24T09:50:03.406Z,89.84
2017-06-24T09:55:03.112Z,88.84
2017-06-24T10:00:03.322Z,88.74
2017-06-24T10:05:02.802Z,87.88
2017-06-24T10:10:02.756Z,87.59
2017-06-24T10:15:02.613Z,87.21
2017-06-24T10:20:03.211Z,87.4
2017-06-24T10:25:03.554Z,87.78
2017-06-24T10:30:02.949Z,87.01
2017-06-24T10:35:02.738Z,86.44
2017-06-24T10:40:03.341Z,86.25
2017-06-24T10:45:03.427Z,86.05
2017-06-24T10:50:03.530Z,86.25
2017-06-24T10:55:02.897Z,86.34
2017-06-24T11:00:02.966Z,87.59
2017-06-24T11:05:03.049Z,88.88
2017-06-24T11:10:03.270Z,89.5
2017-06-24T11:15:02.828Z,90.37
2017-06-24T11:20:03.430Z,90.37
2017-06-24T11:25:03.500Z,91.04
2017-06-24T11:30:02.931Z,90.46
2017-06-24T11:35:02.663Z,89.6
2017-06-24T11:40:02.799Z,89.69
2017-06-24T11:45:02.793Z,88.93
2017-06-24T11:50:03.117Z,88.11
2017-06-24T11:55:03.058Z,88.11
2017-06-24T12:00:03.300Z,88.73
2017-06-24T12:05:02.844Z,89.4
2017-06-24T12:10:02.823Z,89.69
2017-06-24T12:15:03.144Z,90.27
2017-06-24T12:20:03.337Z,91.33
2017-06-24T12:25:03.189Z,92.14
2017-06-24T12:30:03.578Z,92.43
2017-06-24T12:35:02.724Z,92.24
2017-06-24T12:40:03.061Z,92.91
2017-06-24T12:45:03.114Z,92.62
2017-06-24T12:50:03.255Z,92.72
2017-06-24T12:55:03.481Z,92.33
2017-06-24T13:00:02.862Z,92.14
2017-06-24T13:05:03.217Z,91.71
2017-06-24T13:10:02.681Z,91.37
2017-06-24T13:15:03.253Z,91.47
2017-06-24T13:20:03.342Z,91.47
2017-06-24T13:25:02.612Z,91.95
2017-06-24T13:30:02.661Z,92.62
2017-06-24T13:35:03.231Z,92.76
2017-06-24T13:40:02.737Z,93.34
2017-06-24T13:45:02.972Z,93.24
2017-06-24T13:50:03.211Z,93.96
2017-06-24T13:55:03.424Z,94.73
2017-06-24T14:00:02.736Z,94.83
2017-06-24T14:05:02.908Z,95.7
2017-06-24T14:10:03.336Z,96.12
2017-06-24T14:15:02.552Z,96.42
2017-06-24T14:20:02.946Z,96.61
2017-06-24T14:25:03.228Z,96.7
2017-06-24T14:30:03.363Z,96.8
2017-06-24T14:35:03.531Z,97.19
2017-06-24T14:40:02.984Z,97.19
2017-06-24T14:45:03.486Z,96.8
2017-06-24T14:50:02.862Z,96.12
2017-06-24T14:55:03.025Z,96.51
2017-06-24T15:00:03.252Z,96.56
2017-06-24T15:05:02.632Z,96.37
2017-06-24T15:10:02.975Z,95.7
2017-06-24T15:15:03.376Z,95.4
2017-06-24T15:20:03.392Z,95.6
2017-06-24T15:25:02.730Z,95.6
2017-06-24T15:30:03.125Z,94.54
2017-06-24T15:35:03.425Z,94.3
2017-06-24T15:40:03.535Z,93.82
2017-06-24T15:45:02.992Z,94.21
2017-06-24T15:50:03.139Z,94.25
2017-06-24T15:55:03.475Z,94.25
2017-06-24T16:00:02.812Z,94.01
2017-06-24T16:05:03.323Z,94.15
2017-06-24T16:10:02.834Z,94.01
2017-06-24T16:15:03.136Z,93.53
2017-06-24T16:20:03.179Z,92.67
2017-06-24T16:25:03.486Z,91.52
2017-06-24T16:30:02.931Z,90.36
2017-06-24T16:35:03.356Z,88.97
2017-06-24T16:40:03.503Z,88.1
2017-06-24T16:45:02.543Z,87.82
2017-06-24T16:50:03.406Z,87.43
2017-06-24T16:55:03.158Z,87.05
2017-06-24T17:00:03.513Z,86.62
2017-06-24T17:05:02.649Z,85.61
2017-06-24T17:10:02.730Z,83.16
2017-06-24T17:15:03.170Z,83.84
2017-06-24T17:20:03.060Z,82.3
2017-06-24T17:25:03.134Z,80.57
2017-06-24T17:30:02.774Z,78.52
2017-06-24T17:35:02.848Z,77.84
2017-06-24T17:40:03.148Z,76.27
2017-06-24T17:45:03.537Z,75.31
2017-06-24T17:50:02.722Z,75.31
2017-06-24T17:55:03.055Z,75.12
2017-06-24T18:00:03.284Z,74.83
2017-06-24T18:05:03.085Z,74.02
2017-06-24T18:10:03.274Z,73.93
2017-06-24T18:15:03.130Z,74.02
2017-06-24T18:20:02.717Z,73.83
2017-06-24T18:25:03.336Z,73.65
2017-06-24T18:30:03.178Z,73.55
2017-06-24T18:35:03.186Z,73.45
2017-06-24T18:40:02.716Z,73.35
2017-06-24T18:45:03.262Z,73.45
2017-06-24T18:50:02.767Z,73.26
2017-06-24T18:55:03.141Z,73.16
2017-06-24T19:00:03.007Z,73.16
2017-06-24T19:05:03.763Z,73.3
2017-06-24T19:10:02.774Z,73.16
2017-06-24T19:15:02.882Z,73.2
2017-06-24T19:20:02.986Z,73.16
2017-06-24T19:25:03.259Z,73.07
2017-06-24T19:30:03.526Z,73.16
2017-06-24T19:35:03.188Z,73.07
2017-06-24T19:40:03.093Z,73.07
2017-06-24T19:45:03.131Z,72.97
2017-06-24T19:50:02.792Z,72.97
2017-06-24T19:55:02.689Z,72.97
2017-06-24T20:00:02.749Z,72.88
2017-06-24T20:05:03.456Z,72.97
2017-06-24T20:10:02.961Z,72.97
2017-06-24T20:15:02.779Z,73.07
2017-06-24T20:20:03.325Z,73.07
2017-06-24T20:25:03.328Z,73.26
2017-06-24T20:30:02.809Z,73.16
2017-06-24T20:35:02.911Z,73.26
2017-06-24T20:40:02.921Z,73.07
2017-06-24T20:45:03.365Z,73.07
2017-06-24T20:50:03.429Z,72.97
2017-06-24T20:55:02.631Z,72.88
2017-06-24T21:00:02.784Z,72.88
2017-06-24T21:05:03.318Z,72.88
2017-06-24T21:10:03.106Z,72.88
2017-06-24T21:15:02.780Z,72.78
2017-06-24T21:20:03.313Z,72.59
2017-06-24T21:25:02.756Z,72.59
2017-06-24T21:30:03.399Z,72.49
2017-06-24T21:35:02.672Z,72.39
2017-06-24T21:40:03.195Z,72.39
2017-06-24T21:45:02.637Z,72.39
2017-06-24T21:50:02.987Z,72.39
2017-06-24T21:55:03.397Z,72.3
2017-06-24T22:00:02.939Z,72.3
2017-06-24T22:05:03.380Z,72.2
2017-06-24T22:10:02.849Z,72.2
2017-06-24T22:15:03.246Z,72.11
2017-06-24T22:20:02.732Z,72.11
2017-06-24T22:25:03.163Z,72.11
2017-06-24T22:30:02.580Z,72.14
2017-06-24T22:35:03.020Z,72.14
2017-06-24T22:40:03.459Z,72.14
2017-06-24T22:45:02.843Z,72.14
2017-06-24T22:50:03.224Z,72.11
2017-06-24T22:55:02.686Z,72.11
2017-06-24T23:00:03.285Z,72.24
2017-06-24T23:05:03.292Z,72.2
2017-06-24T23:10:02.732Z,72.39
2017-06-24T23:15:03.218Z,72.39
2017-06-24T23:20:02.631Z,72.49
2017-06-24T23:25:03.176Z,72.59
2017-06-24T23:30:03.513Z,72.59
2017-06-24T23:35:02.848Z,72.68
2017-06-24T23:40:03.199Z,72.78
2017-06-24T23:45:02.657Z,72.78
2017-06-24T23:50:03.056Z,72.78
2017-06-24T23:55:03.361Z,72.68
